Time;durP1;ratioP1;P1;durP2;ratioP2;P2;SDS_P1;SDS_P2;PMS_P1;PMS_P2;Temp;Humidity;BMP_temperature;BMP_pressure;BME280_temperature;BME280_humidity;BME280_pressure;Samples;Min_cycle;Max_cycle;Signal;HPM_P1;HPM_P2
2023/05/29 00:04:21;;;;;;;14.40;4.75;;;;;;;;;;10342842;28;20441;-79
2023/05/29 00:09:34;;;;;;;14.05;4.75;;;;;;;;;;10330345;28;20042;-78
2023/05/29 00:14:45;;;;;;;11.35;4.65;;;;;;;;;;10341539;28;20065;-78
2023/05/29 00:20:05;;;;;;;12.15;4.78;;;;;;;;;;10345426;28;20460;-78
2023/05/29 00:25:10;;;;;;;10.48;3.78;;;;;;;;;;10380663;28;20049;-78
2023/05/29 00:30:40;;;;;;;11.90;4.40;;;;;;;;;;10349497;28;20124;-77
2023/05/29 00:35:44;;;;;;;11.77;4.30;;;;;;;;;;10338265;28;20053;-78
2023/05/29 00:40:47;;;;;;;14.73;4.32;;;;;;;;;;10351055;28;20054;-77
2023/05/29 00:45:53;;;;;;;10.30;4.40;;;;;;;;;;10336106;28;20048;-77
2023/05/29 00:50:58;;;;;;;10.55;3.95;;;;;;;;;;10341638;28;20529;-78
2023/05/29 00:56:06;;;;;;;10.48;4.45;;;;;;;;;;10344084;28;20135;-78
2023/05/29 01:01:13;;;;;;;12.77;5.43;;;;;;;;;;10359344;28;20052;-78
2023/05/29 01:06:16;;;;;;;16.00;5.38;;;;;;;;;;10443732;28;20401;-78
2023/05/29 01:11:30;;;;;;;12.45;4.03;;;;;;;;;;10341361;28;20087;-79
2023/05/29 01:16:47;;;;;;;12.93;5.00;;;;;;;;;;10335729;28;20108;-78
2023/05/29 01:22:10;;;;;;;11.88;4.28;;;;;;;;;;10335017;28;20046;-78
2023/05/29 01:27:19;;;;;;;11.73;4.10;;;;;;;;;;10363948;28;20692;-78
2023/05/29 01:32:24;;;;;;;13.02;4.53;;;;;;;;;;10341089;28;20051;-78
2023/05/29 01:37:33;;;;;;;13.25;5.07;;;;;;;;;;10326771;28;20046;-79
2023/05/29 01:42:41;;;;;;;12.07;4.55;;;;;;;;;;10345141;28;20087;-78
2023/05/29 01:47:48;;;;;;;12.05;4.57;;;;;;;;;;10358782;28;20073;-77
2023/05/29 01:52:58;;;;;;;15.82;5.15;;;;;;;;;;10345435;28;20058;-77
2023/05/29 01:58:07;;;;;;;14.55;5.05;;;;;;;;;;10336787;28;20191;-78
2023/05/29 02:03:15;;;;;;;14.50;5.20;;;;;;;;;;10348349;28;20042;-77
2023/05/29 02:08:27;;;;;;;16.50;5.55;;;;;;;;;;10419684;28;20093;-78
2023/05/29 02:13:36;;;;;;;11.63;4.47;;;;;;;;;;10338073;28;20057;-78
2023/05/29 02:18:41;;;;;;;12.95;4.82;;;;;;;;;;10334501;28;20200;-78
2023/05/29 02:23:48;;;;;;;16.77;5.57;;;;;;;;;;10356739;28;20038;-78
2023/05/29 02:28:58;;;;;;;12.85;4.95;;;;;;;;;;10332488;28;20052;-78
2023/05/29 02:34:02;;;;;;;13.23;5.07;;;;;;;;;;10347684;28;20368;-78
2023/05/29 02:39:16;;;;;;;14.55;5.57;;;;;;;;;;10334676;28;20068;-78
2023/05/29 02:44:24;;;;;;;15.50;5.63;;;;;;;;;;10343846;28;20730;-78
2023/05/29 02:49:29;;;;;;;13.77;5.57;;;;;;;;;;10355706;28;20163;-78
2023/05/29 02:54:37;;;;;;;16.02;5.97;;;;;;;;;;10331814;28;20057;-78
2023/05/29 02:59:47;;;;;;;14.85;5.90;;;;;;;;;;10353310;28;20517;-78
2023/05/29 03:05:00;;;;;;;15.38;5.78;;;;;;;;;;10342327;28;20057;-77
2023/05/29 03:10:05;;;;;;;18.15;5.60;;;;;;;;;;10347605;28;20050;-77
2023/05/29 03:15:20;;;;;;;15.35;5.82;;;;;;;;;;10361381;28;20773;-78
2023/05/29 03:20:28;;;;;;;13.98;5.85;;;;;;;;;;10342542;28;20050;-78
2023/05/29 03:25:33;;;;;;;17.38;5.63;;;;;;;;;;10356534;28;20042;-78
2023/05/29 03:30:39;;;;;;;16.70;5.63;;;;;;;;;;10357493;28;20500;-77
2023/05/29 03:35:49;;;;;;;13.50;5.93;;;;;;;;;;10338178;28;20046;-78
2023/05/29 03:40:53;;;;;;;11.13;4.07;;;;;;;;;;10351659;28;20576;-77
2023/05/29 03:46:01;;;;;;;15.32;4.90;;;;;;;;;;10358660;28;20153;-78
2023/05/29 03:51:06;;;;;;;11.77;4.45;;;;;;;;;;10336279;28;20068;-78
2023/05/29 03:56:12;;;;;;;12.82;4.63;;;;;;;;;;10341537;28;20050;-78
2023/05/29 04:01:22;;;;;;;11.00;4.28;;;;;;;;;;10353220;28;20614;-78
2023/05/29 04:06:31;;;;;;;11.65;4.13;;;;;;;;;;10361074;28;20043;-77
2023/05/29 04:11:38;;;;;;;10.27;4.15;;;;;;;;;;10351847;28;20054;-77
2023/05/29 04:16:47;;;;;;;11.82;4.13;;;;;;;;;;10347426;28;20796;-78
2023/05/29 04:21:53;;;;;;;16.48;4.47;;;;;;;;;;10336163;28;20042;-78
2023/05/29 04:27:02;;;;;;;8.80;3.70;;;;;;;;;;10361966;28;20053;-78
2023/05/29 04:32:11;;;;;;;11.52;4.13;;;;;;;;;;10347939;28;20034;-78
2023/05/29 04:37:17;;;;;;;10.05;3.95;;;;;;;;;;10354514;28;20073;-78
2023/05/29 04:42:22;;;;;;;10.73;3.97;;;;;;;;;;10367637;28;20690;-77
2023/05/29 04:47:33;;;;;;;12.65;4.53;;;;;;;;;;10365243;28;20060;-78
2023/05/29 04:52:38;;;;;;;10.27;4.03;;;;;;;;;;10390481;28;20037;-78
2023/05/29 04:57:45;;;;;;;9.73;3.95;;;;;;;;;;10375864;28;20151;-78
2023/05/29 05:02:50;;;;;;;12.45;4.28;;;;;;;;;;10355033;28;20052;-79
2023/05/29 05:07:55;;;;;;;9.30;3.75;;;;;;;;;;10368385;28;20038;-78
2023/05/29 05:13:01;;;;;;;12.40;4.25;;;;;;;;;;10365574;28;20050;-78
2023/05/29 05:18:09;;;;;;;10.90;4.22;;;;;;;;;;10368223;28;20128;-79
2023/05/29 05:23:17;;;;;;;16.60;4.43;;;;;;;;;;10336073;28;20038;-75
2023/05/29 05:28:35;;;;;;;11.95;4.57;;;;;;;;;;10392016;28;20058;-78
2023/05/29 05:33:40;;;;;;;15.27;4.55;;;;;;;;;;10371802;28;20077;-78
2023/05/29 05:38:47;;;;;;;11.73;4.10;;;;;;;;;;10391350;28;20073;-78
2023/05/29 05:43:59;;;;;;;5.70;2.33;;;;;;;;;;10377844;28;20500;-78
2023/05/29 05:49:15;;;;;;;11.18;4.50;;;;;;;;;;10358273;28;20226;-78
2023/05/29 05:54:28;;;;;;;12.27;4.25;;;;;;;;;;10370542;28;20492;-78
2023/05/29 05:59:32;;;;;;;10.70;4.10;;;;;;;;;;10377054;28;20051;-78
2023/05/29 06:04:39;;;;;;;12.48;4.20;;;;;;;;;;10347734;28;20050;-78
2023/05/29 06:09:44;;;;;;;8.18;3.15;;;;;;;;;;10328593;28;20408;-79
2023/05/29 06:14:50;;;;;;;10.50;3.92;;;;;;;;;;10357117;28;20050;-79
2023/05/29 06:19:58;;;;;;;4.80;2.40;;;;;;;;;;10318224;28;20070;-77
2023/05/29 06:25:10;;;;;;;12.18;3.80;;;;;;;;;;10357828;28;20503;-77
2023/05/29 06:30:34;;;;;;;8.18;3.70;;;;;;;;;;10342373;28;20845;-78
2023/05/29 06:35:54;;;;;;;9.20;3.42;;;;;;;;;;10341617;28;20050;-78
2023/05/29 06:41:00;;;;;;;7.82;3.28;;;;;;;;;;10333304;28;20088;-79
2023/05/29 06:46:09;;;;;;;8.90;3.90;;;;;;;;;;10335748;28;21312;-79
2023/05/29 06:51:21;;;;;;;10.10;3.85;;;;;;;;;;10360084;28;20524;-79
2023/05/29 06:56:30;;;;;;;9.73;3.78;;;;;;;;;;10336735;28;20041;-81
2023/05/29 07:01:36;;;;;;;12.43;3.97;;;;;;;;;;10345708;28;20085;-79
2023/05/29 07:06:42;;;;;;;8.98;4.05;;;;;;;;;;10347265;28;20048;-77
2023/05/29 07:11:53;;;;;;;11.63;3.90;;;;;;;;;;10352647;28;20046;-79
2023/05/29 07:16:57;;;;;;;8.02;3.50;;;;;;;;;;10332356;28;20118;-79
2023/05/29 07:22:10;;;;;;;8.13;4.45;;;;;;;;;;10347800;28;20038;-79
2023/05/29 07:27:17;;;;;;;8.40;3.97;;;;;;;;;;10348299;28;20758;-78
2023/05/29 07:32:28;;;;;;;10.70;4.47;;;;;;;;;;10350659;28;20408;-79
2023/05/29 07:37:36;;;;;;;11.43;4.47;;;;;;;;;;10351011;28;20052;-79
2023/05/29 07:42:46;;;;;;;10.30;4.00;;;;;;;;;;10333889;28;20045;-79
2023/05/29 07:48:00;;;;;;;9.75;4.10;;;;;;;;;;10345076;28;20492;-80
2023/05/29 07:53:30;;;;;;;12.43;4.60;;;;;;;;;;10350655;28;20054;-86
2023/05/29 08:04:07;;;;;;;9.57;4.60;;;;;;;;;;10335927;28;20399;-81
2023/05/29 08:09:18;;;;;;;12.95;5.32;;;;;;;;;;10332757;28;20050;-81
2023/05/29 08:14:30;;;;;;;9.80;5.07;;;;;;;;;;10350932;28;20622;-82
2023/05/29 08:19:44;;;;;;;9.50;5.35;;;;;;;;;;10346091;28;20051;-82
2023/05/29 08:24:54;;;;;;;9.48;5.53;;;;;;;;;;10342527;28;20492;-81
2023/05/29 08:30:01;;;;;;;9.10;5.60;;;;;;;;;;10329862;28;20627;-79
2023/05/29 08:35:06;;;;;;;10.35;5.32;;;;;;;;;;10342686;28;20443;-78
2023/05/29 08:40:17;;;;;;;9.50;5.50;;;;;;;;;;10348809;28;20417;-79
2023/05/29 08:45:23;;;;;;;;;;;;;;;;;;10333436;28;20083;-78
2023/05/29 08:50:47;;;;;;;11.63;5.88;;;;;;;;;;10339282;28;20020;-78
2023/05/29 08:55:55;;;;;;;7.50;5.40;;;;;;;;;;10330272;28;20065;-78
2023/05/29 09:01:01;;;;;;;9.40;5.28;;;;;;;;;;10327576;28;20045;-79
2023/05/29 09:06:29;;;;;;;8.60;5.10;;;;;;;;;;10324324;28;20074;-78
2023/05/29 09:11:34;;;;;;;8.18;4.93;;;;;;;;;;10324185;28;20073;-76
2023/05/29 09:17:06;;;;;;;9.65;5.05;;;;;;;;;;10340109;28;20112;-79
2023/05/29 09:22:15;;;;;;;7.97;5.90;;;;;;;;;;10326040;28;20034;-78
2023/05/29 09:27:22;;;;;;;7.38;5.65;;;;;;;;;;10334746;28;20095;-78
2023/05/29 09:32:32;;;;;;;8.93;5.18;;;;;;;;;;10348535;28;20663;-77
2023/05/29 09:37:42;;;;;;;10.02;6.68;;;;;;;;;;10323484;28;20404;-77
2023/05/29 09:42:48;;;;;;;7.57;5.22;;;;;;;;;;10321196;28;20978;-76
2023/05/29 09:53:34;;;;;;;6.80;4.80;;;;;;;;;;12522411;22;20785;-77
2023/05/29 09:58:38;;;;;;;6.43;4.78;;;;;;;;;;10418044;23;20136;-77
2023/05/29 10:03:42;;;;;;;9.15;4.90;;;;;;;;;;10405149;28;20057;-77
2023/05/29 10:08:48;;;;;;;7.85;5.15;;;;;;;;;;10081475;23;20064;-80
2023/05/29 10:13:53;;;;;;;9.35;5.07;;;;;;;;;;10553534;23;20046;-77
2023/05/29 10:18:56;;;;;;;6.40;5.20;;;;;;;;;;10366736;28;20057;-76
2023/05/29 10:23:59;;;;;;;6.05;4.55;;;;;;;;;;10369184;28;20042;-76
2023/05/29 10:29:06;;;;;;;5.50;4.50;;;;;;;;;;10363808;28;20042;-76
2023/05/29 10:34:14;;;;;;;9.88;4.88;;;;;;;;;;10366380;28;20042;-75
2023/05/29 10:39:17;;;;;;;7.57;4.68;;;;;;;;;;10350050;28;20045;-75
2023/05/29 10:44:42;;;;;;;6.55;4.70;;;;;;;;;;10372885;28;20038;-75
2023/05/29 10:49:50;;;;;;;6.65;4.95;;;;;;;;;;10378440;28;20041;-75
2023/05/29 10:54:54;;;;;;;8.88;5.45;;;;;;;;;;10380323;28;20061;-75
2023/05/29 11:00:06;;;;;;;7.35;4.55;;;;;;;;;;10377113;28;20102;-75
2023/05/29 11:05:19;;;;;;;5.65;4.35;;;;;;;;;;10378492;28;20101;-76
2023/05/29 11:10:41;;;;;;;5.95;4.40;;;;;;;;;;10379168;28;20048;-75
2023/05/29 11:15:45;;;;;;;5.60;4.38;;;;;;;;;;10378491;28;20046;-75
2023/05/29 11:20:51;;;;;;;6.13;4.53;;;;;;;;;;10358449;28;20046;-76
2023/05/29 11:25:53;;;;;;;5.75;4.47;;;;;;;;;;10373997;28;20457;-76
2023/05/29 11:31:00;;;;;;;5.60;4.32;;;;;;;;;;10372162;28;20039;-77
2023/05/29 11:36:03;;;;;;;6.40;4.15;;;;;;;;;;10373962;28;20042;-76
2023/05/29 11:41:06;;;;;;;7.88;4.35;;;;;;;;;;10376272;28;20143;-76
2023/05/29 11:46:18;;;;;;;4.82;3.88;;;;;;;;;;10372619;28;20045;-77
2023/05/29 11:51:21;;;;;;;6.75;3.97;;;;;;;;;;10372931;28;20116;-77
2023/05/29 11:56:24;;;;;;;6.18;3.80;;;;;;;;;;10370143;28;20046;-75
2023/05/29 12:01:29;;;;;;;5.38;4.03;;;;;;;;;;10375072;28;20057;-75
2023/05/29 12:06:33;;;;;;;4.70;3.60;;;;;;;;;;10375882;28;20085;-76
2023/05/29 12:11:36;;;;;;;7.68;4.28;;;;;;;;;;10384404;28;20095;-77
2023/05/29 12:16:40;;;;;;;6.18;3.88;;;;;;;;;;10416235;28;20049;-76
2023/05/29 12:21:43;;;;;;;7.50;3.95;;;;;;;;;;10413779;28;20121;-76
2023/05/29 12:26:47;;;;;;;9.40;4.00;;;;;;;;;;10411412;28;20098;-76
2023/05/29 12:31:59;;;;;;;8.98;4.00;;;;;;;;;;10401719;28;20046;-76
2023/05/29 12:37:05;;;;;;;6.40;3.60;;;;;;;;;;10411765;28;20193;-75
2023/05/29 12:42:07;;;;;;;6.57;3.53;;;;;;;;;;10418352;28;20122;-76
2023/05/29 12:47:14;;;;;;;6.55;3.55;;;;;;;;;;10412989;28;20049;-77
2023/05/29 12:52:21;;;;;;;6.32;3.50;;;;;;;;;;10418416;28;20038;-76
2023/05/29 12:57:23;;;;;;;7.68;3.35;;;;;;;;;;10416399;28;20037;-77
2023/05/29 13:02:29;;;;;;;8.23;3.92;;;;;;;;;;10411134;28;20104;-76
2023/05/29 13:07:32;;;;;;;6.45;3.65;;;;;;;;;;10416445;28;20054;-75
2023/05/29 13:12:35;;;;;;;8.00;4.22;;;;;;;;;;10415299;28;20037;-75
2023/05/29 13:17:40;;;;;;;6.82;3.75;;;;;;;;;;10418155;28;20045;-77
2023/05/29 13:22:43;;;;;;;8.30;3.47;;;;;;;;;;10412753;28;20295;-76
2023/05/29 13:27:46;;;;;;;7.75;3.20;;;;;;;;;;10412880;28;20037;-76
2023/05/29 13:32:50;;;;;;;5.70;3.13;;;;;;;;;;10414797;28;20061;-77
2023/05/29 13:37:53;;;;;;;5.40;3.40;;;;;;;;;;10411589;28;20061;-75
2023/05/29 13:42:56;;;;;;;5.70;3.10;;;;;;;;;;10414509;28;20069;-76
2023/05/29 13:48:00;;;;;;;6.60;3.22;;;;;;;;;;10408626;28;20141;-75
2023/05/29 13:53:03;;;;;;;5.75;3.60;;;;;;;;;;10408891;28;20061;-75
2023/05/29 13:58:06;;;;;;;6.05;2.97;;;;;;;;;;10409422;28;20052;-77
2023/05/29 14:03:09;;;;;;;7.78;3.67;;;;;;;;;;10410600;28;20102;-76
2023/05/29 14:08:12;;;;;;;5.32;2.83;;;;;;;;;;10408367;28;20046;-76
2023/05/29 14:13:15;;;;;;;6.78;3.10;;;;;;;;;;10411332;28;20038;-76
2023/05/29 14:18:19;;;;;;;8.15;2.80;;;;;;;;;;10410847;28;20049;-74
2023/05/29 14:23:21;;;;;;;6.78;3.25;;;;;;;;;;10418382;28;20052;-76
2023/05/29 14:28:24;;;;;;;6.35;3.40;;;;;;;;;;10418814;28;20076;-76
2023/05/29 14:33:28;;;;;;;5.78;3.20;;;;;;;;;;10423906;28;20069;-77
2023/05/29 14:38:31;;;;;;;5.20;3.20;;;;;;;;;;10419001;28;20057;-76
2023/05/29 14:43:33;;;;;;;6.97;3.15;;;;;;;;;;10417477;28;20132;-76
2023/05/29 14:48:37;;;;;;;7.75;3.20;;;;;;;;;;10424620;28;20060;-76
2023/05/29 14:53:40;;;;;;;8.43;2.95;;;;;;;;;;10422183;28;20057;-76
2023/05/29 14:58:42;;;;;;;6.50;3.03;;;;;;;;;;10420977;28;20076;-76
2023/05/29 15:03:47;;;;;;;6.20;3.50;;;;;;;;;;10422451;28;20507;-76
2023/05/29 15:08:50;;;;;;;7.38;3.35;;;;;;;;;;10417348;28;20113;-76
2023/05/29 15:13:53;;;;;;;7.35;2.95;;;;;;;;;;10424135;28;20041;-77
2023/05/29 15:18:57;;;;;;;4.78;2.85;;;;;;;;;;10421353;28;20037;-76
2023/05/29 15:24:00;;;;;;;7.88;3.42;;;;;;;;;;10417371;28;20141;-79
2023/05/29 15:29:02;;;;;;;6.60;3.35;;;;;;;;;;10401143;28;20501;-79
2023/05/29 15:34:06;;;;;;;8.45;3.30;;;;;;;;;;10396581;28;20054;-79
2023/05/29 15:39:09;;;;;;;4.93;2.92;;;;;;;;;;10415753;28;20053;-79
2023/05/29 15:44:12;;;;;;;7.53;2.85;;;;;;;;;;10416915;28;20038;-78
2023/05/29 15:49:14;;;;;;;;;;;;;;;;;;10423094;28;20042;-78
2023/05/29 15:54:18;;;;;;;7.68;2.60;;;;;;;;;;10417605;28;19986;-76
2023/05/29 15:59:21;;;;;;;7.82;3.17;;;;;;;;;;10421966;28;20041;-76
2023/05/29 16:04:24;;;;;;;7.68;3.10;;;;;;;;;;10425172;28;20048;-74
2023/05/29 16:09:28;;;;;;;4.10;2.53;;;;;;;;;;10420733;28;20052;-74
2023/05/29 16:14:31;;;;;;;8.80;2.58;;;;;;;;;;10414795;28;20109;-76
2023/05/29 16:19:33;;;;;;;;;;;;;;;;;;10416514;28;20041;-74
2023/05/29 16:24:37;;;;;;;4.70;2.50;;;;;;;;;;10421620;28;19988;-75
2023/05/29 16:29:40;;;;;;;7.05;2.85;;;;;;;;;;10403136;28;20057;-75
2023/05/29 16:34:42;;;;;;;;;;;;;;;;;;10420695;28;20047;-75
2023/05/29 16:39:46;;;;;;;4.80;2.57;;;;;;;;;;10420577;28;20060;-76
2023/05/29 16:44:49;;;;;;;6.10;2.65;;;;;;;;;;10415567;28;20061;-75
2023/05/29 16:49:55;;;;;;;4.80;2.45;;;;;;;;;;10422634;28;20048;-75
2023/05/29 16:55:01;;;;;;;5.03;2.45;;;;;;;;;;10423544;28;20059;-75
2023/05/29 17:00:04;;;;;;;4.68;2.67;;;;;;;;;;10416466;28;20033;-75
2023/05/29 17:05:07;;;;;;;;;;;;;;;;;;10420090;28;20034;-74
2023/05/29 17:10:12;;;;;;;5.93;2.35;;;;;;;;;;10421556;28;19968;-73
2023/05/29 17:15:14;;;;;;;7.72;2.97;;;;;;;;;;10396909;28;20214;-75
2023/05/29 17:20:17;;;;;;;5.45;2.58;;;;;;;;;;10410231;28;20044;-76
2023/05/29 17:25:22;;;;;;;5.75;2.70;;;;;;;;;;10415399;28;20055;-76
2023/05/29 17:30:25;;;;;;;5.45;2.70;;;;;;;;;;10415691;28;20067;-75
2023/05/29 17:35:28;;;;;;;5.65;2.63;;;;;;;;;;10416139;28;20089;-77
2023/05/29 17:40:33;;;;;;;5.60;2.60;;;;;;;;;;10416286;28;20536;-75
2023/05/29 17:45:35;;;;;;;6.88;2.20;;;;;;;;;;10414752;28;20072;-75
2023/05/29 17:50:38;;;;;;;7.38;2.72;;;;;;;;;;10418826;28;20113;-76
2023/05/29 17:55:42;;;;;;;9.65;3.50;;;;;;;;;;10413810;28;20038;-76
2023/05/29 18:00:45;;;;;;;5.93;2.53;;;;;;;;;;10415978;28;20037;-74
2023/05/29 18:05:47;;;;;;;6.95;3.20;;;;;;;;;;10416792;28;20045;-75
2023/05/29 18:10:51;;;;;;;6.38;2.60;;;;;;;;;;10418064;28;20072;-75
2023/05/29 18:15:54;;;;;;;6.82;3.10;;;;;;;;;;10396075;28;20068;-76
2023/05/29 18:20:57;;;;;;;4.63;2.28;;;;;;;;;;10395148;28;20129;-74
2023/05/29 18:26:03;;;;;;;6.25;3.22;;;;;;;;;;10410557;28;20056;-77
2023/05/29 18:31:06;;;;;;;5.13;2.60;;;;;;;;;;10410478;28;20049;-76
2023/05/29 18:36:08;;;;;;;5.53;2.57;;;;;;;;;;10409573;28;20041;-76
2023/05/29 18:41:12;;;;;;;6.53;2.83;;;;;;;;;;10409895;28;20327;-76
2023/05/29 18:46:15;;;;;;;7.53;2.40;;;;;;;;;;10407261;28;20527;-76
2023/05/29 18:51:18;;;;;;;6.40;2.72;;;;;;;;;;10411334;28;20042;-77
2023/05/29 18:56:24;;;;;;;8.10;2.70;;;;;;;;;;10408665;28;20106;-75
2023/05/29 19:01:26;;;;;;;7.53;2.78;;;;;;;;;;10404748;28;20045;-78
2023/05/29 19:06:35;;;;;;;5.50;2.70;;;;;;;;;;10417173;28;20046;-75
2023/05/29 19:11:39;;;;;;;8.52;2.95;;;;;;;;;;10419397;28;20041;-76
2023/05/29 19:16:42;;;;;;;7.25;2.65;;;;;;;;;;10414483;28;20156;-79
2023/05/29 19:21:45;;;;;;;9.82;3.88;;;;;;;;;;10420782;28;20109;-80
2023/05/29 19:26:49;;;;;;;9.75;3.60;;;;;;;;;;10413733;28;20119;-77
2023/05/29 19:31:52;;;;;;;9.10;3.55;;;;;;;;;;10415616;28;20402;-77
2023/05/29 19:36:55;;;;;;;;;;;;;;;;;;10414640;28;20377;-77
2023/05/29 19:42:00;;;;;;;6.00;3.00;;;;;;;;;;10413614;28;19968;-78
2023/05/29 19:47:03;;;;;;;7.18;2.55;;;;;;;;;;10417134;28;20045;-77
2023/05/29 19:52:09;;;;;;;7.70;3.22;;;;;;;;;;10416195;28;20060;-77
2023/05/29 19:57:13;;;;;;;9.70;3.25;;;;;;;;;;10417426;28;20040;-78
2023/05/29 20:02:15;;;;;;;7.10;2.50;;;;;;;;;;10413929;28;20091;-78
2023/05/29 20:07:18;;;;;;;8.97;2.97;;;;;;;;;;10421424;28;20041;-77
2023/05/29 20:12:22;;;;;;;7.93;3.03;;;;;;;;;;10414284;28;20069;-78
2023/05/29 20:17:26;;;;;;;12.10;3.00;;;;;;;;;;10413264;28;20121;-76
2023/05/29 20:22:28;;;;;;;5.20;2.90;;;;;;;;;;10414035;28;20042;-78
2023/05/29 20:27:33;;;;;;;11.90;4.68;;;;;;;;;;10404455;28;20055;-77
2023/05/29 20:32:37;;;;;;;5.97;3.00;;;;;;;;;;10417783;28;20042;-77
2023/05/29 20:37:40;;;;;;;5.78;2.75;;;;;;;;;;10412245;28;20033;-79
2023/05/29 20:42:45;;;;;;;6.63;2.83;;;;;;;;;;10413559;28;20044;-78
2023/05/29 20:47:48;;;;;;;6.72;2.67;;;;;;;;;;10413787;28;20452;-80
2023/05/29 20:52:51;;;;;;;7.28;2.90;;;;;;;;;;10391074;28;20636;-78
2023/05/29 20:57:56;;;;;;;10.48;3.03;;;;;;;;;;10409139;28;20042;-78
2023/05/29 21:02:59;;;;;;;5.50;2.55;;;;;;;;;;10415717;28;20072;-78
2023/05/29 21:08:03;;;;;;;7.65;3.40;;;;;;;;;;10412845;28;20037;-77
2023/05/29 21:13:07;;;;;;;6.95;3.10;;;;;;;;;;10412106;28;20061;-78
2023/05/29 21:18:23;;;;;;;7.25;2.92;;;;;;;;;;10412783;28;20407;-77
2023/05/29 21:23:27;;;;;;;8.55;3.25;;;;;;;;;;10410563;28;20437;-77
2023/05/29 21:28:31;;;;;;;7.28;3.00;;;;;;;;;;10415601;28;20037;-78
2023/05/29 21:33:34;;;;;;;10.00;3.13;;;;;;;;;;10410994;28;20226;-78
2023/05/29 21:38:36;;;;;;;7.00;2.50;;;;;;;;;;10411557;28;20107;-77
2023/05/29 21:43:42;;;;;;;8.50;3.00;;;;;;;;;;10415072;28;20048;-78
2023/05/29 21:48:44;;;;;;;6.05;2.60;;;;;;;;;;10413973;28;20451;-78
2023/05/29 21:53:47;;;;;;;8.07;2.83;;;;;;;;;;10416253;28;20034;-77
2023/05/29 21:58:51;;;;;;;5.05;2.63;;;;;;;;;;10412700;28;20076;-79
2023/05/29 22:03:53;;;;;;;6.47;2.78;;;;;;;;;;10412530;28;20069;-75
2023/05/29 22:08:56;;;;;;;7.00;2.80;;;;;;;;;;10416997;28;20443;-77
2023/05/29 22:14:00;;;;;;;8.98;3.15;;;;;;;;;;10414847;28;20057;-75
2023/05/29 22:19:04;;;;;;;4.88;2.47;;;;;;;;;;10417803;28;20049;-79
2023/05/29 22:24:09;;;;;;;6.50;2.45;;;;;;;;;;10412625;28;20046;-77
2023/05/29 22:29:13;;;;;;;4.10;2.20;;;;;;;;;;10412997;28;20121;-78
2023/05/29 22:34:16;;;;;;;5.78;2.47;;;;;;;;;;10410630;28;20101;-76
2023/05/29 22:39:19;;;;;;;6.37;2.70;;;;;;;;;;10412225;28;20037;-78
2023/05/29 22:44:23;;;;;;;4.28;2.15;;;;;;;;;;10421580;28;20030;-78
2023/05/29 22:49:26;;;;;;;5.75;2.95;;;;;;;;;;10407600;28;20093;-78
2023/05/29 22:54:30;;;;;;;6.65;2.72;;;;;;;;;;10418786;28;20068;-78
2023/05/29 22:59:35;;;;;;;5.05;2.42;;;;;;;;;;10419444;28;20064;-77
2023/05/29 23:04:37;;;;;;;7.10;2.47;;;;;;;;;;10422080;28;20045;-76
2023/05/29 23:09:40;;;;;;;5.57;2.60;;;;;;;;;;10422952;28;20076;-79
2023/05/29 23:14:44;;;;;;;5.40;2.57;;;;;;;;;;10417846;28;20090;-78
2023/05/29 23:19:48;;;;;;;6.38;2.50;;;;;;;;;;10424143;28;20300;-78
2023/05/29 23:24:50;;;;;;;5.43;2.60;;;;;;;;;;10417307;28;20117;-77
2023/05/29 23:29:54;;;;;;;3.97;2.05;;;;;;;;;;10415851;28;20046;-78
2023/05/29 23:34:57;;;;;;;5.55;2.78;;;;;;;;;;10416866;28;20037;-77
2023/05/29 23:40:00;;;;;;;6.57;2.45;;;;;;;;;;10418254;28;20172;-78
2023/05/29 23:45:06;;;;;;;5.27;2.33;;;;;;;;;;10419715;28;20069;-78
2023/05/29 23:50:10;;;;;;;7.40;2.42;;;;;;;;;;10418284;28;20033;-78
2023/05/29 23:55:12;;;;;;;7.68;2.50;;;;;;;;;;10396119;28;20041;-78
